sensor_id;sensor_type;location;lat;lon;timestamp;P1;durP1;ratioP1;P2;durP2;ratioP2
29044;SDS011;16133;49.486;12.176;2023-08-30T00:00:04;5.97;;;4.38;;
29044;SDS011;16133;49.486;12.176;2023-08-30T00:02:30;4.47;;;3.78;;
29044;SDS011;16133;49.486;12.176;2023-08-30T00:04:59;6.18;;;4.50;;
29044;SDS011;16133;49.486;12.176;2023-08-30T00:07:25;6.20;;;4.10;;
29044;SDS011;16133;49.486;12.176;2023-08-30T00:09:51;4.88;;;3.78;;
29044;SDS011;16133;49.486;12.176;2023-08-30T00:12:16;8.23;;;4.90;;
29044;SDS011;16133;49.486;12.176;2023-08-30T00:14:41;9.57;;;5.65;;
29044;SDS011;16133;49.486;12.176;2023-08-30T00:17:07;6.38;;;5.28;;
29044;SDS011;16133;49.486;12.176;2023-08-30T00:19:32;8.50;;;6.40;;
29044;SDS011;16133;49.486;12.176;2023-08-30T00:21:58;8.18;;;5.35;;
29044;SDS011;16133;49.486;12.176;2023-08-30T00:24:23;6.55;;;5.30;;
29044;SDS011;16133;49.486;12.176;2023-08-30T00:26:48;6.18;;;4.93;;
29044;SDS011;16133;49.486;12.176;2023-08-30T00:29:14;7.38;;;5.53;;
29044;SDS011;16133;49.486;12.176;2023-08-30T00:31:39;6.63;;;5.30;;
29044;SDS011;16133;49.486;12.176;2023-08-30T00:34:04;7.30;;;5.20;;
29044;SDS011;16133;49.486;12.176;2023-08-30T00:36:30;6.07;;;4.68;;
29044;SDS011;16133;49.486;12.176;2023-08-30T00:38:55;6.32;;;4.80;;
29044;SDS011;16133;49.486;12.176;2023-08-30T00:41:21;8.20;;;5.28;;
29044;SDS011;16133;49.486;12.176;2023-08-30T00:43:46;6.75;;;4.28;;
29044;SDS011;16133;49.486;12.176;2023-08-30T00:46:12;5.47;;;4.20;;
29044;SDS011;16133;49.486;12.176;2023-08-30T00:48:38;5.57;;;3.97;;
29044;SDS011;16133;49.486;12.176;2023-08-30T00:51:04;7.40;;;4.40;;
29044;SDS011;16133;49.486;12.176;2023-08-30T00:53:30;5.28;;;4.25;;
29044;SDS011;16133;49.486;12.176;2023-08-30T00:55:55;7.60;;;5.05;;
29044;SDS011;16133;49.486;12.176;2023-08-30T00:58:21;6.78;;;4.93;;
29044;SDS011;16133;49.486;12.176;2023-08-30T01:00:46;6.15;;;4.82;;
29044;SDS011;16133;49.486;12.176;2023-08-30T01:03:12;5.85;;;4.50;;
29044;SDS011;16133;49.486;12.176;2023-08-30T01:05:38;8.80;;;5.28;;
29044;SDS011;16133;49.486;12.176;2023-08-30T01:08:03;7.97;;;5.28;;
29044;SDS011;16133;49.486;12.176;2023-08-30T01:11:15;5.70;;;4.45;;
29044;SDS011;16133;49.486;12.176;2023-08-30T01:18:48;6.47;;;5.13;;
29044;SDS011;16133;49.486;12.176;2023-08-30T01:21:29;7.40;;;5.13;;
29044;SDS011;16133;49.486;12.176;2023-08-30T01:24:23;8.27;;;5.10;;
29044;SDS011;16133;49.486;12.176;2023-08-30T01:27:08;6.90;;;4.90;;
29044;SDS011;16133;49.486;12.176;2023-08-30T01:29:36;8.68;;;5.50;;
29044;SDS011;16133;49.486;12.176;2023-08-30T01:32:03;7.88;;;5.40;;
29044;SDS011;16133;49.486;12.176;2023-08-30T01:34:30;8.38;;;5.63;;
29044;SDS011;16133;49.486;12.176;2023-08-30T01:36:56;8.63;;;5.95;;
29044;SDS011;16133;49.486;12.176;2023-08-30T01:39:23;9.18;;;6.38;;
29044;SDS011;16133;49.486;12.176;2023-08-30T01:41:49;9.02;;;6.28;;
29044;SDS011;16133;49.486;12.176;2023-08-30T01:44:17;9.07;;;5.95;;
29044;SDS011;16133;49.486;12.176;2023-08-30T01:46:42;11.38;;;7.13;;
29044;SDS011;16133;49.486;12.176;2023-08-30T01:49:10;8.43;;;6.20;;
29044;SDS011;16133;49.486;12.176;2023-08-30T01:51:37;7.80;;;5.80;;
29044;SDS011;16133;49.486;12.176;2023-08-30T01:54:04;9.63;;;5.53;;
29044;SDS011;16133;49.486;12.176;2023-08-30T01:56:31;7.68;;;5.55;;
29044;SDS011;16133;49.486;12.176;2023-08-30T01:58:57;7.70;;;5.57;;
29044;SDS011;16133;49.486;12.176;2023-08-30T02:01:22;8.13;;;5.10;;
29044;SDS011;16133;49.486;12.176;2023-08-30T02:03:47;7.38;;;5.10;;
29044;SDS011;16133;49.486;12.176;2023-08-30T02:06:14;7.85;;;5.60;;
29044;SDS011;16133;49.486;12.176;2023-08-30T02:11:34;7.88;;;5.57;;
29044;SDS011;16133;49.486;12.176;2023-08-30T02:14:02;9.52;;;6.18;;
29044;SDS011;16133;49.486;12.176;2023-08-30T02:16:31;9.00;;;6.43;;
29044;SDS011;16133;49.486;12.176;2023-08-30T02:18:58;9.48;;;6.18;;
29044;SDS011;16133;49.486;12.176;2023-08-30T02:21:24;7.88;;;5.35;;
29044;SDS011;16133;49.486;12.176;2023-08-30T02:23:50;7.68;;;5.80;;
29044;SDS011;16133;49.486;12.176;2023-08-30T02:26:17;7.13;;;5.38;;
29044;SDS011;16133;49.486;12.176;2023-08-30T02:28:44;7.38;;;5.38;;
29044;SDS011;16133;49.486;12.176;2023-08-30T02:31:09;9.00;;;6.13;;
29044;SDS011;16133;49.486;12.176;2023-08-30T02:33:35;7.25;;;5.25;;
29044;SDS011;16133;49.486;12.176;2023-08-30T02:36:02;7.45;;;5.70;;
29044;SDS011;16133;49.486;12.176;2023-08-30T02:38:28;7.45;;;5.50;;
29044;SDS011;16133;49.486;12.176;2023-08-30T02:40:53;8.70;;;6.35;;
29044;SDS011;16133;49.486;12.176;2023-08-30T02:43:18;7.45;;;5.47;;
29044;SDS011;16133;49.486;12.176;2023-08-30T02:45:44;7.63;;;5.25;;
29044;SDS011;16133;49.486;12.176;2023-08-30T02:48:09;5.85;;;5.00;;
29044;SDS011;16133;49.486;12.176;2023-08-30T02:50:35;7.75;;;5.57;;
29044;SDS011;16133;49.486;12.176;2023-08-30T02:53:00;6.35;;;4.90;;
29044;SDS011;16133;49.486;12.176;2023-08-30T02:55:25;7.35;;;5.32;;
29044;SDS011;16133;49.486;12.176;2023-08-30T02:57:51;8.38;;;5.55;;
29044;SDS011;16133;49.486;12.176;2023-08-30T03:00:16;7.40;;;5.22;;
29044;SDS011;16133;49.486;12.176;2023-08-30T03:02:42;8.45;;;5.70;;
29044;SDS011;16133;49.486;12.176;2023-08-30T03:05:07;6.53;;;5.05;;
29044;SDS011;16133;49.486;12.176;2023-08-30T03:07:32;6.15;;;4.72;;
29044;SDS011;16133;49.486;12.176;2023-08-30T03:09:58;6.30;;;4.32;;
29044;SDS011;16133;49.486;12.176;2023-08-30T03:12:23;5.25;;;4.47;;
29044;SDS011;16133;49.486;12.176;2023-08-30T03:14:49;7.25;;;5.30;;
29044;SDS011;16133;49.486;12.176;2023-08-30T03:17:15;6.65;;;4.80;;
29044;SDS011;16133;49.486;12.176;2023-08-30T03:19:40;8.38;;;4.90;;
29044;SDS011;16133;49.486;12.176;2023-08-30T03:22:05;6.70;;;4.85;;
29044;SDS011;16133;49.486;12.176;2023-08-30T03:24:31;5.60;;;4.65;;
29044;SDS011;16133;49.486;12.176;2023-08-30T03:26:56;7.20;;;5.47;;
29044;SDS011;16133;49.486;12.176;2023-08-30T03:29:21;7.00;;;5.05;;
29044;SDS011;16133;49.486;12.176;2023-08-30T03:31:47;7.65;;;5.22;;
29044;SDS011;16133;49.486;12.176;2023-08-30T03:34:12;8.25;;;5.93;;
29044;SDS011;16133;49.486;12.176;2023-08-30T03:36:38;6.95;;;5.30;;
29044;SDS011;16133;49.486;12.176;2023-08-30T03:39:04;9.35;;;5.30;;
29044;SDS011;16133;49.486;12.176;2023-08-30T03:41:29;8.45;;;5.22;;
29044;SDS011;16133;49.486;12.176;2023-08-30T03:43:55;8.27;;;5.20;;
29044;SDS011;16133;49.486;12.176;2023-08-30T03:46:20;7.60;;;5.35;;
29044;SDS011;16133;49.486;12.176;2023-08-30T03:48:46;9.38;;;6.10;;
29044;SDS011;16133;49.486;12.176;2023-08-30T03:51:11;7.75;;;5.38;;
29044;SDS011;16133;49.486;12.176;2023-08-30T03:53:36;9.20;;;4.90;;
29044;SDS011;16133;49.486;12.176;2023-08-30T03:56:02;8.60;;;5.60;;
29044;SDS011;16133;49.486;12.176;2023-08-30T03:58:28;7.40;;;5.50;;
29044;SDS011;16133;49.486;12.176;2023-08-30T04:00:54;9.43;;;6.20;;
29044;SDS011;16133;49.486;12.176;2023-08-30T04:03:19;7.60;;;5.60;;
29044;SDS011;16133;49.486;12.176;2023-08-30T04:05:45;7.63;;;5.50;;
29044;SDS011;16133;49.486;12.176;2023-08-30T04:08:10;9.05;;;6.22;;
29044;SDS011;16133;49.486;12.176;2023-08-30T04:10:36;8.95;;;5.72;;
29044;SDS011;16133;49.486;12.176;2023-08-30T04:13:06;8.40;;;5.70;;
29044;SDS011;16133;49.486;12.176;2023-08-30T04:15:33;8.18;;;6.30;;
29044;SDS011;16133;49.486;12.176;2023-08-30T04:18:03;9.88;;;6.28;;
29044;SDS011;16133;49.486;12.176;2023-08-30T04:20:29;9.98;;;6.15;;
29044;SDS011;16133;49.486;12.176;2023-08-30T04:22:55;8.40;;;5.80;;
29044;SDS011;16133;49.486;12.176;2023-08-30T04:25:21;9.70;;;6.00;;
29044;SDS011;16133;49.486;12.176;2023-08-30T04:27:47;8.88;;;5.78;;
29044;SDS011;16133;49.486;12.176;2023-08-30T04:30:13;7.60;;;5.30;;
29044;SDS011;16133;49.486;12.176;2023-08-30T04:32:38;6.93;;;5.10;;
29044;SDS011;16133;49.486;12.176;2023-08-30T04:35:05;7.25;;;5.20;;
29044;SDS011;16133;49.486;12.176;2023-08-30T04:37:30;7.30;;;5.30;;
29044;SDS011;16133;49.486;12.176;2023-08-30T04:39:56;7.30;;;5.28;;
29044;SDS011;16133;49.486;12.176;2023-08-30T04:42:22;8.77;;;5.78;;
29044;SDS011;16133;49.486;12.176;2023-08-30T04:44:47;7.63;;;5.47;;
29044;SDS011;16133;49.486;12.176;2023-08-30T04:47:13;9.23;;;5.47;;
29044;SDS011;16133;49.486;12.176;2023-08-30T04:49:38;12.60;;;6.43;;
29044;SDS011;16133;49.486;12.176;2023-08-30T04:52:04;10.80;;;6.47;;
29044;SDS011;16133;49.486;12.176;2023-08-30T04:54:29;13.43;;;8.00;;
29044;SDS011;16133;49.486;12.176;2023-08-30T04:56:55;14.00;;;9.15;;
29044;SDS011;16133;49.486;12.176;2023-08-30T04:59:20;17.23;;;9.73;;
29044;SDS011;16133;49.486;12.176;2023-08-30T05:01:45;15.80;;;9.23;;
29044;SDS011;16133;49.486;12.176;2023-08-30T05:04:11;23.20;;;10.27;;
29044;SDS011;16133;49.486;12.176;2023-08-30T05:06:37;13.85;;;9.10;;
29044;SDS011;16133;49.486;12.176;2023-08-30T05:09:02;17.67;;;10.10;;
29044;SDS011;16133;49.486;12.176;2023-08-30T05:11:28;14.02;;;8.88;;
29044;SDS011;16133;49.486;12.176;2023-08-30T05:13:56;21.58;;;10.43;;
29044;SDS011;16133;49.486;12.176;2023-08-30T05:16:22;19.45;;;8.98;;
29044;SDS011;16133;49.486;12.176;2023-08-30T05:18:47;16.23;;;9.32;;
29044;SDS011;16133;49.486;12.176;2023-08-30T05:21:13;14.35;;;8.02;;
29044;SDS011;16133;49.486;12.176;2023-08-30T05:23:39;14.73;;;8.48;;
29044;SDS011;16133;49.486;12.176;2023-08-30T05:26:07;12.70;;;8.07;;
29044;SDS011;16133;49.486;12.176;2023-08-30T05:28:33;12.45;;;8.20;;
29044;SDS011;16133;49.486;12.176;2023-08-30T05:30:59;13.05;;;9.02;;
29044;SDS011;16133;49.486;12.176;2023-08-30T05:33:24;12.55;;;8.00;;
29044;SDS011;16133;49.486;12.176;2023-08-30T05:35:50;13.27;;;7.88;;
29044;SDS011;16133;49.486;12.176;2023-08-30T05:38:15;11.00;;;7.32;;
29044;SDS011;16133;49.486;12.176;2023-08-30T05:40:40;11.13;;;7.40;;
29044;SDS011;16133;49.486;12.176;2023-08-30T05:43:09;11.70;;;6.90;;
29044;SDS011;16133;49.486;12.176;2023-08-30T05:45:35;11.85;;;8.05;;
29044;SDS011;16133;49.486;12.176;2023-08-30T05:48:00;9.93;;;6.85;;
29044;SDS011;16133;49.486;12.176;2023-08-30T05:50:26;9.30;;;6.88;;
29044;SDS011;16133;49.486;12.176;2023-08-30T05:52:51;8.98;;;6.20;;
29044;SDS011;16133;49.486;12.176;2023-08-30T05:55:17;17.73;;;8.70;;
29044;SDS011;16133;49.486;12.176;2023-08-30T05:57:42;9.35;;;6.68;;
29044;SDS011;16133;49.486;12.176;2023-08-30T06:00:11;8.35;;;6.03;;
29044;SDS011;16133;49.486;12.176;2023-08-30T06:02:38;9.00;;;6.45;;
29044;SDS011;16133;49.486;12.176;2023-08-30T06:05:03;8.95;;;5.60;;
29044;SDS011;16133;49.486;12.176;2023-08-30T06:07:29;6.72;;;4.75;;
29044;SDS011;16133;49.486;12.176;2023-08-30T06:09:54;6.38;;;4.88;;
29044;SDS011;16133;49.486;12.176;2023-08-30T06:12:20;6.40;;;4.60;;
29044;SDS011;16133;49.486;12.176;2023-08-30T06:14:45;4.65;;;3.90;;
29044;SDS011;16133;49.486;12.176;2023-08-30T06:17:16;4.65;;;3.90;;
29044;SDS011;16133;49.486;12.176;2023-08-30T06:19:42;7.07;;;5.38;;
29044;SDS011;16133;49.486;12.176;2023-08-30T06:22:07;5.18;;;3.70;;
29044;SDS011;16133;49.486;12.176;2023-08-30T06:24:33;4.35;;;3.83;;
29044;SDS011;16133;49.486;12.176;2023-08-30T06:26:58;4.88;;;3.90;;
29044;SDS011;16133;49.486;12.176;2023-08-30T06:29:24;4.70;;;3.38;;
29044;SDS011;16133;49.486;12.176;2023-08-30T06:31:50;2.92;;;2.67;;
29044;SDS011;16133;49.486;12.176;2023-08-30T06:34:15;4.15;;;3.15;;
29044;SDS011;16133;49.486;12.176;2023-08-30T06:36:41;5.55;;;3.97;;
29044;SDS011;16133;49.486;12.176;2023-08-30T06:39:07;5.60;;;4.30;;
29044;SDS011;16133;49.486;12.176;2023-08-30T06:41:32;4.72;;;3.60;;
29044;SDS011;16133;49.486;12.176;2023-08-30T06:43:57;5.85;;;4.15;;
29044;SDS011;16133;49.486;12.176;2023-08-30T06:46:23;4.00;;;3.08;;
29044;SDS011;16133;49.486;12.176;2023-08-30T06:48:48;4.72;;;3.85;;
29044;SDS011;16133;49.486;12.176;2023-08-30T06:51:14;5.55;;;3.47;;
29044;SDS011;16133;49.486;12.176;2023-08-30T06:53:39;4.95;;;3.30;;
29044;SDS011;16133;49.486;12.176;2023-08-30T06:56:04;3.97;;;3.35;;
29044;SDS011;16133;49.486;12.176;2023-08-30T06:58:30;4.65;;;3.35;;
29044;SDS011;16133;49.486;12.176;2023-08-30T07:00:56;5.28;;;3.90;;
29044;SDS011;16133;49.486;12.176;2023-08-30T07:03:22;5.68;;;3.85;;
29044;SDS011;16133;49.486;12.176;2023-08-30T07:05:48;8.70;;;5.97;;
29044;SDS011;16133;49.486;12.176;2023-08-30T07:08:15;6.28;;;4.78;;
29044;SDS011;16133;49.486;12.176;2023-08-30T07:10:40;4.97;;;3.90;;
29044;SDS011;16133;49.486;12.176;2023-08-30T07:13:06;5.32;;;4.03;;
29044;SDS011;16133;49.486;12.176;2023-08-30T07:15:39;6.13;;;4.75;;
29044;SDS011;16133;49.486;12.176;2023-08-30T07:18:05;8.40;;;5.43;;
29044;SDS011;16133;49.486;12.176;2023-08-30T07:20:34;5.90;;;4.53;;
29044;SDS011;16133;49.486;12.176;2023-08-30T07:23:01;7.10;;;5.20;;
29044;SDS011;16133;49.486;12.176;2023-08-30T07:25:27;6.53;;;5.28;;
29044;SDS011;16133;49.486;12.176;2023-08-30T07:27:52;9.25;;;6.57;;
29044;SDS011;16133;49.486;12.176;2023-08-30T07:30:18;10.38;;;7.18;;
29044;SDS011;16133;49.486;12.176;2023-08-30T07:32:43;6.68;;;5.13;;
29044;SDS011;16133;49.486;12.176;2023-08-30T07:35:09;5.78;;;4.45;;
29044;SDS011;16133;49.486;12.176;2023-08-30T07:37:35;5.80;;;4.57;;
29044;SDS011;16133;49.486;12.176;2023-08-30T07:40:03;6.53;;;5.20;;
29044;SDS011;16133;49.486;12.176;2023-08-30T07:42:32;8.80;;;4.45;;
29044;SDS011;16133;49.486;12.176;2023-08-30T07:44:57;10.73;;;5.82;;
29044;SDS011;16133;49.486;12.176;2023-08-30T07:47:22;10.20;;;5.80;;
29044;SDS011;16133;49.486;12.176;2023-08-30T07:49:48;6.18;;;4.20;;
29044;SDS011;16133;49.486;12.176;2023-08-30T07:52:13;7.30;;;5.75;;
29044;SDS011;16133;49.486;12.176;2023-08-30T07:54:39;5.95;;;5.03;;
29044;SDS011;16133;49.486;12.176;2023-08-30T07:57:05;5.15;;;3.78;;
29044;SDS011;16133;49.486;12.176;2023-08-30T07:59:37;6.93;;;5.10;;
29044;SDS011;16133;49.486;12.176;2023-08-30T08:02:04;6.25;;;4.75;;
29044;SDS011;16133;49.486;12.176;2023-08-30T08:04:31;5.28;;;4.18;;
29044;SDS011;16133;49.486;12.176;2023-08-30T08:06:57;5.10;;;4.18;;
29044;SDS011;16133;49.486;12.176;2023-08-30T08:09:22;6.47;;;4.20;;
29044;SDS011;16133;49.486;12.176;2023-08-30T08:11:48;6.68;;;4.57;;
29044;SDS011;16133;49.486;12.176;2023-08-30T08:14:14;10.63;;;5.72;;
29044;SDS011;16133;49.486;12.176;2023-08-30T08:16:40;6.85;;;4.97;;
29044;SDS011;16133;49.486;12.176;2023-08-30T08:19:05;6.60;;;5.00;;
29044;SDS011;16133;49.486;12.176;2023-08-30T08:21:32;10.38;;;6.68;;
29044;SDS011;16133;49.486;12.176;2023-08-30T08:23:58;6.93;;;4.72;;
29044;SDS011;16133;49.486;12.176;2023-08-30T08:26:23;7.70;;;4.95;;
29044;SDS011;16133;49.486;12.176;2023-08-30T08:28:50;8.63;;;5.85;;
29044;SDS011;16133;49.486;12.176;2023-08-30T08:31:15;5.80;;;4.97;;
29044;SDS011;16133;49.486;12.176;2023-08-30T08:33:40;6.50;;;4.57;;
29044;SDS011;16133;49.486;12.176;2023-08-30T08:36:06;5.97;;;4.32;;
29044;SDS011;16133;49.486;12.176;2023-08-30T08:38:31;4.32;;;3.30;;
29044;SDS011;16133;49.486;12.176;2023-08-30T08:41:04;4.72;;;3.85;;
29044;SDS011;16133;49.486;12.176;2023-08-30T08:43:31;5.13;;;3.53;;
29044;SDS011;16133;49.486;12.176;2023-08-30T08:46:01;5.13;;;3.15;;
29044;SDS011;16133;49.486;12.176;2023-08-30T08:48:28;6.53;;;4.40;;
29044;SDS011;16133;49.486;12.176;2023-08-30T08:50:56;7.10;;;4.80;;
29044;SDS011;16133;49.486;12.176;2023-08-30T08:53:22;7.35;;;4.63;;
29044;SDS011;16133;49.486;12.176;2023-08-30T08:55:48;5.50;;;4.15;;
29044;SDS011;16133;49.486;12.176;2023-08-30T08:58:14;6.20;;;4.63;;
29044;SDS011;16133;49.486;12.176;2023-08-30T09:00:41;5.43;;;4.10;;
29044;SDS011;16133;49.486;12.176;2023-08-30T09:03:08;6.40;;;4.13;;
29044;SDS011;16133;49.486;12.176;2023-08-30T09:05:35;6.30;;;3.92;;
29044;SDS011;16133;49.486;12.176;2023-08-30T09:08:02;5.35;;;4.15;;
29044;SDS011;16133;49.486;12.176;2023-08-30T09:10:31;7.07;;;5.45;;
29044;SDS011;16133;49.486;12.176;2023-08-30T09:12:57;11.52;;;6.97;;
29044;SDS011;16133;49.486;12.176;2023-08-30T09:15:22;9.38;;;5.82;;
29044;SDS011;16133;49.486;12.176;2023-08-30T09:20:21;6.47;;;4.97;;
29044;SDS011;16133;49.486;12.176;2023-08-30T09:22:49;6.85;;;4.40;;
29044;SDS011;16133;49.486;12.176;2023-08-30T09:25:22;5.53;;;3.65;;
29044;SDS011;16133;49.486;12.176;2023-08-30T09:27:50;5.65;;;3.58;;
29044;SDS011;16133;49.486;12.176;2023-08-30T09:30:20;5.00;;;3.60;;
29044;SDS011;16133;49.486;12.176;2023-08-30T09:32:46;3.92;;;3.08;;
29044;SDS011;16133;49.486;12.176;2023-08-30T09:35:12;4.00;;;3.03;;
29044;SDS011;16133;49.486;12.176;2023-08-30T09:37:37;2.63;;;2.40;;
29044;SDS011;16133;49.486;12.176;2023-08-30T09:40:03;3.25;;;2.83;;
29044;SDS011;16133;49.486;12.176;2023-08-30T09:42:29;4.03;;;3.15;;
29044;SDS011;16133;49.486;12.176;2023-08-30T09:44:54;3.05;;;2.75;;
29044;SDS011;16133;49.486;12.176;2023-08-30T09:47:22;2.70;;;2.45;;
29044;SDS011;16133;49.486;12.176;2023-08-30T09:49:49;4.25;;;3.13;;
29044;SDS011;16133;49.486;12.176;2023-08-30T09:52:19;2.55;;;2.35;;
29044;SDS011;16133;49.486;12.176;2023-08-30T09:54:48;2.47;;;2.20;;
29044;SDS011;16133;49.486;12.176;2023-08-30T09:57:14;7.30;;;3.38;;
29044;SDS011;16133;49.486;12.176;2023-08-30T09:59:40;3.22;;;2.60;;
29044;SDS011;16133;49.486;12.176;2023-08-30T10:02:07;3.22;;;2.70;;
29044;SDS011;16133;49.486;12.176;2023-08-30T10:04:33;3.55;;;2.47;;
29044;SDS011;16133;49.486;12.176;2023-08-30T10:07:02;2.50;;;2.30;;
29044;SDS011;16133;49.486;12.176;2023-08-30T10:09:29;3.63;;;2.17;;
29044;SDS011;16133;49.486;12.176;2023-08-30T10:11:55;3.50;;;2.10;;
29044;SDS011;16133;49.486;12.176;2023-08-30T10:14:23;2.53;;;2.30;;
29044;SDS011;16133;49.486;12.176;2023-08-30T10:16:49;2.88;;;1.88;;
29044;SDS011;16133;49.486;12.176;2023-08-30T10:19:25;2.93;;;1.70;;
29044;SDS011;16133;49.486;12.176;2023-08-30T10:24:20;2.17;;;1.70;;
29044;SDS011;16133;49.486;12.176;2023-08-30T10:26:52;2.90;;;1.73;;
29044;SDS011;16133;49.486;12.176;2023-08-30T10:29:19;1.92;;;1.73;;
29044;SDS011;16133;49.486;12.176;2023-08-30T10:31:46;1.80;;;1.67;;
29044;SDS011;16133;49.486;12.176;2023-08-30T10:34:13;2.45;;;1.98;;
29044;SDS011;16133;49.486;12.176;2023-08-30T10:36:42;2.20;;;2.00;;
29044;SDS011;16133;49.486;12.176;2023-08-30T10:39:12;2.13;;;1.92;;
29044;SDS011;16133;49.486;12.176;2023-08-30T10:41:53;1.98;;;1.60;;
29044;SDS011;16133;49.486;12.176;2023-08-30T10:44:19;2.53;;;1.77;;
29044;SDS011;16133;49.486;12.176;2023-08-30T10:46:51;2.42;;;1.83;;
29044;SDS011;16133;49.486;12.176;2023-08-30T10:49:20;1.95;;;1.63;;
29044;SDS011;16133;49.486;12.176;2023-08-30T10:51:53;2.53;;;1.92;;
29044;SDS011;16133;49.486;12.176;2023-08-30T10:54:21;1.67;;;1.52;;
29044;SDS011;16133;49.486;12.176;2023-08-30T10:59:20;1.63;;;1.52;;
29044;SDS011;16133;49.486;12.176;2023-08-30T11:01:47;2.45;;;1.70;;
29044;SDS011;16133;49.486;12.176;2023-08-30T11:04:16;3.03;;;1.60;;
29044;SDS011;16133;49.486;12.176;2023-08-30T11:06:43;2.35;;;1.48;;
29044;SDS011;16133;49.486;12.176;2023-08-30T11:09:14;2.92;;;1.75;;
29044;SDS011;16133;49.486;12.176;2023-08-30T11:11:44;1.48;;;1.38;;
29044;SDS011;16133;49.486;12.176;2023-08-30T11:14:13;1.50;;;1.25;;
29044;SDS011;16133;49.486;12.176;2023-08-30T11:16:40;2.88;;;1.50;;
29044;SDS011;16133;49.486;12.176;2023-08-30T11:19:06;3.03;;;1.45;;
29044;SDS011;16133;49.486;12.176;2023-08-30T11:21:33;1.77;;;1.48;;
29044;SDS011;16133;49.486;12.176;2023-08-30T11:24:01;2.83;;;1.48;;
29044;SDS011;16133;49.486;12.176;2023-08-30T11:26:26;1.40;;;1.30;;
29044;SDS011;16133;49.486;12.176;2023-08-30T11:28:52;2.00;;;1.80;;
29044;SDS011;16133;49.486;12.176;2023-08-30T11:31:21;2.70;;;1.60;;
29044;SDS011;16133;49.486;12.176;2023-08-30T11:33:51;2.03;;;1.38;;
29044;SDS011;16133;49.486;12.176;2023-08-30T11:36:21;3.33;;;1.67;;
29044;SDS011;16133;49.486;12.176;2023-08-30T11:38:47;2.33;;;1.27;;
29044;SDS011;16133;49.486;12.176;2023-08-30T11:41:13;2.22;;;1.63;;
29044;SDS011;16133;49.486;12.176;2023-08-30T11:43:38;2.05;;;1.55;;
29044;SDS011;16133;49.486;12.176;2023-08-30T11:46:05;1.48;;;1.38;;
29044;SDS011;16133;49.486;12.176;2023-08-30T11:48:30;2.25;;;1.48;;
29044;SDS011;16133;49.486;12.176;2023-08-30T11:50:57;1.50;;;1.40;;
29044;SDS011;16133;49.486;12.176;2023-08-30T11:53:23;1.70;;;1.30;;
29044;SDS011;16133;49.486;12.176;2023-08-30T11:55:49;1.77;;;1.55;;
29044;SDS011;16133;49.486;12.176;2023-08-30T11:58:15;4.38;;;1.40;;
29044;SDS011;16133;49.486;12.176;2023-08-30T12:00:43;3.33;;;1.50;;
29044;SDS011;16133;49.486;12.176;2023-08-30T12:03:08;1.88;;;1.50;;
29044;SDS011;16133;49.486;12.176;2023-08-30T12:05:43;1.73;;;1.33;;
29044;SDS011;16133;49.486;12.176;2023-08-30T12:10:50;1.83;;;1.73;;
29044;SDS011;16133;49.486;12.176;2023-08-30T12:13:26;1.80;;;1.63;;
29044;SDS011;16133;49.486;12.176;2023-08-30T12:15:53;1.45;;;1.35;;
29044;SDS011;16133;49.486;12.176;2023-08-30T12:18:29;2.17;;;1.90;;
29044;SDS011;16133;49.486;12.176;2023-08-30T12:20:58;2.67;;;1.58;;
29044;SDS011;16133;49.486;12.176;2023-08-30T12:23:25;2.42;;;1.92;;
29044;SDS011;16133;49.486;12.176;2023-08-30T12:26:03;1.20;;;1.10;;
29044;SDS011;16133;49.486;12.176;2023-08-30T12:28:33;1.80;;;1.70;;
29044;SDS011;16133;49.486;12.176;2023-08-30T12:31:00;1.70;;;1.60;;
29044;SDS011;16133;49.486;12.176;2023-08-30T12:33:25;2.33;;;2.00;;
29044;SDS011;16133;49.486;12.176;2023-08-30T12:35:52;4.00;;;2.33;;
29044;SDS011;16133;49.486;12.176;2023-08-30T12:38:17;2.92;;;1.88;;
29044;SDS011;16133;49.486;12.176;2023-08-30T12:40:44;1.88;;;1.50;;
29044;SDS011;16133;49.486;12.176;2023-08-30T12:43:11;3.47;;;2.05;;
29044;SDS011;16133;49.486;12.176;2023-08-30T12:45:38;2.83;;;1.63;;
29044;SDS011;16133;49.486;12.176;2023-08-30T12:48:04;1.95;;;1.77;;
29044;SDS011;16133;49.486;12.176;2023-08-30T12:50:30;3.10;;;1.83;;
29044;SDS011;16133;49.486;12.176;2023-08-30T12:52:56;2.65;;;2.13;;
29044;SDS011;16133;49.486;12.176;2023-08-30T12:55:21;1.98;;;1.70;;
29044;SDS011;16133;49.486;12.176;2023-08-30T12:57:46;1.98;;;1.50;;
29044;SDS011;16133;49.486;12.176;2023-08-30T13:00:12;2.10;;;1.70;;
29044;SDS011;16133;49.486;12.176;2023-08-30T13:02:39;2.00;;;1.58;;
29044;SDS011;16133;49.486;12.176;2023-08-30T13:05:05;1.88;;;1.73;;
29044;SDS011;16133;49.486;12.176;2023-08-30T13:07:30;2.95;;;1.75;;
29044;SDS011;16133;49.486;12.176;2023-08-30T13:09:56;3.22;;;1.80;;
29044;SDS011;16133;49.486;12.176;2023-08-30T13:12:21;2.15;;;1.92;;
29044;SDS011;16133;49.486;12.176;2023-08-30T13:14:47;2.17;;;1.60;;
29044;SDS011;16133;49.486;12.176;2023-08-30T13:17:12;2.03;;;1.67;;
29044;SDS011;16133;49.486;12.176;2023-08-30T13:19:37;2.10;;;1.85;;
29044;SDS011;16133;49.486;12.176;2023-08-30T13:22:03;1.95;;;1.75;;
29044;SDS011;16133;49.486;12.176;2023-08-30T13:24:28;2.97;;;1.60;;
29044;SDS011;16133;49.486;12.176;2023-08-30T13:26:55;2.95;;;1.63;;
29044;SDS011;16133;49.486;12.176;2023-08-30T13:29:20;7.82;;;2.40;;
29044;SDS011;16133;49.486;12.176;2023-08-30T13:31:46;10.25;;;3.28;;
29044;SDS011;16133;49.486;12.176;2023-08-30T13:34:11;15.55;;;4.55;;
29044;SDS011;16133;49.486;12.176;2023-08-30T13:36:36;40.83;;;11.07;;
29044;SDS011;16133;49.486;12.176;2023-08-30T13:39:04;102.53;;;23.77;;
29044;SDS011;16133;49.486;12.176;2023-08-30T13:41:29;45.58;;;13.30;;
29044;SDS011;16133;49.486;12.176;2023-08-30T13:43:55;22.08;;;6.07;;
29044;SDS011;16133;49.486;12.176;2023-08-30T13:46:20;14.27;;;4.93;;
29044;SDS011;16133;49.486;12.176;2023-08-30T13:48:45;5.28;;;2.25;;
29044;SDS011;16133;49.486;12.176;2023-08-30T13:51:12;4.35;;;1.90;;
29044;SDS011;16133;49.486;12.176;2023-08-30T13:53:38;2.90;;;1.75;;
29044;SDS011;16133;49.486;12.176;2023-08-30T13:56:03;2.17;;;1.70;;
29044;SDS011;16133;49.486;12.176;2023-08-30T13:58:29;3.45;;;2.25;;
29044;SDS011;16133;49.486;12.176;2023-08-30T14:00:54;3.78;;;1.92;;
29044;SDS011;16133;49.486;12.176;2023-08-30T14:03:20;3.20;;;1.98;;
29044;SDS011;16133;49.486;12.176;2023-08-30T14:05:45;2.53;;;2.20;;
29044;SDS011;16133;49.486;12.176;2023-08-30T14:08:11;2.17;;;1.95;;
29044;SDS011;16133;49.486;12.176;2023-08-30T14:10:36;2.60;;;2.03;;
29044;SDS011;16133;49.486;12.176;2023-08-30T14:13:05;3.20;;;2.50;;
29044;SDS011;16133;49.486;12.176;2023-08-30T14:15:30;3.90;;;1.98;;
29044;SDS011;16133;49.486;12.176;2023-08-30T14:17:57;4.07;;;2.35;;
29044;SDS011;16133;49.486;12.176;2023-08-30T14:20:22;2.47;;;1.88;;
29044;SDS011;16133;49.486;12.176;2023-08-30T14:22:48;3.35;;;2.25;;
29044;SDS011;16133;49.486;12.176;2023-08-30T14:25:13;4.25;;;1.88;;
29044;SDS011;16133;49.486;12.176;2023-08-30T14:27:39;2.67;;;2.38;;
29044;SDS011;16133;49.486;12.176;2023-08-30T14:30:05;4.15;;;2.42;;
29044;SDS011;16133;49.486;12.176;2023-08-30T14:32:31;2.22;;;2.03;;
29044;SDS011;16133;49.486;12.176;2023-08-30T14:34:57;2.85;;;2.22;;
29044;SDS011;16133;49.486;12.176;2023-08-30T14:37:22;2.90;;;2.50;;
29044;SDS011;16133;49.486;12.176;2023-08-30T14:39:47;2.00;;;1.80;;
29044;SDS011;16133;49.486;12.176;2023-08-30T14:42:13;4.45;;;2.92;;
29044;SDS011;16133;49.486;12.176;2023-08-30T14:44:38;3.10;;;2.15;;
29044;SDS011;16133;49.486;12.176;2023-08-30T14:47:04;3.80;;;2.63;;